Time;durP1;ratioP1;P1;durP2;ratioP2;P2;SDS_P1;SDS_P2;PMS_P1;PMS_P2;Temp;Humidity;BMP_temperature;BMP_pressure;BME280_temperature;BME280_humidity;BME280_pressure;Samples;Min_cycle;Max_cycle;Signal;HPM_P1;HPM_P2
2022/03/22 00:01:14;;;;;;;;;;;2.40;99.90;;;;;;5126795;28;19923;-72
2022/03/22 00:03:43;;;;;;;;;;;2.40;99.90;;;;;;5126623;28;19919;-72
2022/03/22 00:06:12;;;;;;;;;;;2.40;99.90;;;;;;5123677;28;19985;-72
2022/03/22 00:08:38;;;;;;;;;;;2.40;99.90;;;;;;5126481;28;19927;-72
2022/03/22 00:11:06;;;;;;;;;;;2.30;99.90;;;;;;5126321;28;20203;-72
2022/03/22 00:13:33;;;;;;;;;;;2.30;99.90;;;;;;5126444;28;19920;-72
2022/03/22 00:16:00;;;;;;;;;;;2.20;99.90;;;;;;5125760;28;19919;-72
2022/03/22 00:18:26;;;;;;;;;;;2.20;99.90;;;;;;5126411;28;19927;-72
2022/03/22 00:20:53;;;;;;;;;;;2.10;99.90;;;;;;5126634;28;19957;-72
2022/03/22 00:23:21;;;;;;;;;;;2.20;99.90;;;;;;5105920;28;19920;-72
2022/03/22 00:25:48;;;;;;;;;;;2.20;99.90;;;;;;5105071;28;19942;-72
2022/03/22 00:28:16;;;;;;;;;;;2.20;99.90;;;;;;5115358;28;19920;-72
2022/03/22 00:30:43;;;;;;;;;;;2.20;99.90;;;;;;5126260;28;19920;-72
2022/03/22 00:33:10;;;;;;;;;;;2.10;99.90;;;;;;5125812;28;20226;-72
2022/03/22 00:35:37;;;;;;;;;;;2.00;99.90;;;;;;5125384;28;19920;-74
2022/03/22 00:38:05;;;;;;;;;;;2.00;99.90;;;;;;5125782;28;19920;-72
2022/03/22 00:40:31;;;;;;;;;;;2.00;99.90;;;;;;5125955;28;19927;-72
2022/03/22 00:42:58;;;;;;;;;;;2.00;99.90;;;;;;5126094;28;19919;-72
2022/03/22 00:45:27;;;;;;;;;;;2.00;99.90;;;;;;5125132;28;19930;-72
2022/03/22 00:47:54;;;;;;;;;;;2.00;99.90;;;;;;5125873;28;19928;-72
2022/03/22 00:50:21;;;;;;;;;;;1.90;99.90;;;;;;5125955;28;19919;-72
2022/03/22 00:52:48;;;;;;;;;;;1.90;99.90;;;;;;5125417;28;20119;-72
2022/03/22 00:55:15;;;;;;;;;;;1.90;99.90;;;;;;5125029;28;19920;-72
2022/03/22 00:57:42;;;;;;;;;;;1.90;99.90;;;;;;5125182;28;19923;-72
2022/03/22 01:00:10;;;;;;;;;;;1.90;99.90;;;;;;5125519;28;19923;-73
2022/03/22 01:02:39;;;;;;;;;;;1.90;99.90;;;;;;5125500;28;20237;-72
2022/03/22 01:05:11;;;;;;;;;;;1.90;99.90;;;;;;5122924;28;19920;-72
2022/03/22 01:07:40;;;;;;;;;;;1.80;99.90;;;;;;5125345;28;19919;-72
2022/03/22 01:10:07;;;;;;;;;;;1.80;99.90;;;;;;5125555;28;20111;-72
2022/03/22 01:12:35;;;;;;;;;;;1.70;99.90;;;;;;5125334;28;19920;-72
2022/03/22 01:15:01;;;;;;;;;;;1.70;99.90;;;;;;5107735;28;19983;-74
2022/03/22 01:17:31;;;;;;;;;;;1.60;99.90;;;;;;5124602;28;19926;-72
2022/03/22 01:19:59;;;;;;;;;;;1.50;99.90;;;;;;5124838;28;20277;-72
2022/03/22 01:22:26;;;;;;;;;;;1.50;99.90;;;;;;5125061;28;19926;-72
2022/03/22 01:24:53;;;;;;;;;;;1.50;99.90;;;;;;5125171;28;19958;-72
2022/03/22 01:27:20;;;;;;;;;;;1.50;99.90;;;;;;5124409;28;19973;-72
2022/03/22 01:29:46;;;;;;;;;;;1.50;99.90;;;;;;5124899;28;19923;-72
2022/03/22 01:32:13;;;;;;;;;;;1.50;99.90;;;;;;5124871;28;19920;-72
2022/03/22 01:34:40;;;;;;;;;;;1.40;99.90;;;;;;5124829;28;19941;-72
2022/03/22 01:37:07;;;;;;;;;;;1.40;99.90;;;;;;5124216;28;19920;-72
2022/03/22 01:39:34;;;;;;;;;;;1.40;99.90;;;;;;5124567;28;20203;-72
2022/03/22 01:42:01;;;;;;;;;;;1.40;99.90;;;;;;5125144;28;20211;-73
2022/03/22 01:44:28;;;;;;;;;;;1.30;99.90;;;;;;5124864;28;19981;-72
2022/03/22 01:46:56;;;;;;;;;;;1.30;99.90;;;;;;5124358;28;19926;-72
2022/03/22 01:49:23;;;;;;;;;;;1.30;99.90;;;;;;5124529;28;19926;-72
2022/03/22 01:51:51;;;;;;;;;;;1.30;99.90;;;;;;5124566;28;19920;-72
2022/03/22 01:54:19;;;;;;;;;;;1.30;99.90;;;;;;5124673;28;19920;-72
2022/03/22 01:56:46;;;;;;;;;;;1.30;99.90;;;;;;5123690;28;19982;-72
2022/03/22 01:59:13;;;;;;;;;;;1.30;99.90;;;;;;5124685;28;19919;-72
2022/03/22 02:07:12;;;;;;;;;;;1.20;99.90;;;;;;5123943;28;19958;-72
2022/03/22 02:09:40;;;;;;;;;;;1.10;99.90;;;;;;5124275;28;19920;-72
2022/03/22 02:12:07;;;;;;;;;;;1.10;99.90;;;;;;5124566;28;19920;-72
2022/03/22 02:14:34;;;;;;;;;;;1.10;99.90;;;;;;5124265;28;19924;-72
2022/03/22 02:17:06;;;;;;;;;;;1.00;99.90;;;;;;5123578;28;19927;-72
2022/03/22 02:19:33;;;;;;;;;;;1.00;99.90;;;;;;5104067;28;19952;-72
2022/03/22 02:22:02;;;;;;;;;;;1.00;99.90;;;;;;5109346;28;19920;-72
2022/03/22 02:24:30;;;;;;;;;;;1.00;99.90;;;;;;5110666;28;19934;-72
2022/03/22 02:26:56;;;;;;;;;;;0.90;99.90;;;;;;5107392;28;19920;-72
2022/03/22 02:29:23;;;;;;;;;;;0.90;99.90;;;;;;5110683;28;20330;-72
2022/03/22 02:31:49;;;;;;;;;;;0.80;99.90;;;;;;5110805;28;20100;-72
2022/03/22 02:34:18;;;;;;;;;;;0.80;99.90;;;;;;5110606;28;19959;-72
2022/03/22 02:36:46;;;;;;;;;;;0.80;99.90;;;;;;5126910;28;19919;-72
2022/03/22 02:39:12;;;;;;;;;;;0.70;99.90;;;;;;5131076;28;19920;-72
2022/03/22 02:41:42;;;;;;;;;;;0.70;99.90;;;;;;5126785;28;19923;-72
2022/03/22 02:44:10;;;;;;;;;;;0.70;99.90;;;;;;5130943;28;19919;-72
2022/03/22 02:46:37;;;;;;;;;;;0.70;99.90;;;;;;5130017;28;19927;-72
2022/03/22 02:49:03;;;;;;;;;;;0.70;99.90;;;;;;5130686;28;19927;-72
2022/03/22 02:51:30;;;;;;;;;;;0.70;99.90;;;;;;5130545;28;19986;-72
2022/03/22 02:53:56;;;;;;;;;;;0.70;99.90;;;;;;5123603;28;19926;-72
2022/03/22 02:56:23;;;;;;;;;;;0.70;99.90;;;;;;5103914;22;20131;-69
2022/03/22 02:58:51;;;;;;;;;;;0.60;99.90;;;;;;5073820;28;19959;-69
2022/03/22 03:01:18;;;;;;;;;;;0.60;99.90;;;;;;5071230;28;19921;-69
2022/03/22 03:03:44;;;;;;;;;;;0.60;99.90;;;;;;5068831;28;19927;-70
2022/03/22 03:06:12;;;;;;;;;;;0.50;99.90;;;;;;5068828;28;19920;-69
2022/03/22 03:08:38;;;;;;;;;;;0.50;99.90;;;;;;5068288;28;19959;-69
2022/03/22 03:11:05;;;;;;;;;;;0.50;99.90;;;;;;5053578;28;19921;-70
2022/03/22 03:16:13;;;;;;;;;;;0.50;99.90;;;;;;5057982;28;19917;-70
2022/03/22 03:18:41;;;;;;;;;;;0.50;99.90;;;;;;5066672;28;19929;-70
2022/03/22 03:21:08;;;;;;;;;;;0.50;99.90;;;;;;5067265;28;20096;-67
2022/03/22 03:23:35;;;;;;;;;;;0.50;99.90;;;;;;5069026;28;19921;-69
2022/03/22 03:26:01;;;;;;;;;;;0.50;99.90;;;;;;5068598;28;19927;-68
2022/03/22 03:28:28;;;;;;;;;;;0.40;99.90;;;;;;5068886;28;20212;-69
2022/03/22 03:30:55;;;;;;;;;;;0.40;99.90;;;;;;5069308;28;19921;-69
2022/03/22 03:33:22;;;;;;;;;;;0.40;99.90;;;;;;5063043;28;19921;-69
2022/03/22 03:35:49;;;;;;;;;;;0.40;99.90;;;;;;5065031;28;19943;-69
2022/03/22 03:38:16;;;;;;;;;;;0.40;99.90;;;;;;5065482;28;19921;-68
2022/03/22 03:43:27;;;;;;;;;;;0.30;99.90;;;;;;5065579;28;19954;-69
2022/03/22 03:48:39;;;;;;;;;;;0.30;99.90;;;;;;5065941;28;19989;-70
2022/03/22 03:51:05;;;;;;;;;;;0.30;99.90;;;;;;5065609;28;20212;-69
2022/03/22 03:53:32;;;;;;;;;;;0.20;99.90;;;;;;5065736;28;19983;-68
2022/03/22 03:55:58;;;;;;;;;;;0.20;99.90;;;;;;5064507;28;19944;-69
2022/03/22 03:58:25;;;;;;;;;;;0.10;99.90;;;;;;5065255;28;19920;-70
2022/03/22 04:00:52;;;;;;;;;;;0.10;99.90;;;;;;5064880;28;19921;-69
2022/03/22 04:03:18;;;;;;;;;;;0.10;99.90;;;;;;5065817;28;19928;-69
2022/03/22 04:05:46;;;;;;;;;;;0.00;99.90;;;;;;5064752;28;19920;-69
2022/03/22 04:08:13;;;;;;;;;;;0.00;99.90;;;;;;5065607;28;20093;-69
2022/03/22 04:10:39;;;;;;;;;;;0.00;99.90;;;;;;5064905;28;20140;-69
2022/03/22 04:13:06;;;;;;;;;;;0.00;99.90;;;;;;5065205;28;20155;-69
2022/03/22 04:15:33;;;;;;;;;;;-0.10;99.90;;;;;;5064151;28;19933;-69
2022/03/22 04:17:59;;;;;;;;;;;-0.10;99.90;;;;;;5065127;28;19920;-70
2022/03/22 04:20:26;;;;;;;;;;;-0.10;99.90;;;;;;5065101;28;19921;-69
2022/03/22 04:22:55;;;;;;;;;;;-0.10;99.90;;;;;;5065083;28;19928;-69
2022/03/22 04:25:21;;;;;;;;;;;-0.10;99.90;;;;;;5064215;28;20171;-69
2022/03/22 04:33:16;;;;;;;;;;;-0.20;99.90;;;;;;5065093;28;20142;-69
2022/03/22 04:35:42;;;;;;;;;;;-0.20;99.90;;;;;;5063886;28;19920;-69
2022/03/22 04:38:10;;;;;;;;;;;-0.20;99.90;;;;;;5064843;28;19994;-69
2022/03/22 04:40:40;;;;;;;;;;;-0.20;99.90;;;;;;5064492;28;19928;-69
2022/03/22 04:43:07;;;;;;;;;;;-0.20;99.90;;;;;;5064972;28;20155;-69
2022/03/22 04:45:35;;;;;;;;;;;-0.20;99.90;;;;;;5063586;28;20239;-70
2022/03/22 04:48:02;;;;;;;;;;;-0.20;99.90;;;;;;5064814;28;19983;-69
2022/03/22 04:50:28;;;;;;;;;;;-0.20;99.90;;;;;;5064477;28;20222;-70
2022/03/22 04:58:25;;;;;;;;;;;-0.30;99.90;;;;;;5081964;28;19967;-69
2022/03/22 05:00:51;;;;;;;;;;;-0.30;99.90;;;;;;5085116;28;19921;-69
2022/03/22 05:03:18;;;;;;;;;;;-0.30;99.90;;;;;;5083174;28;19928;-69
2022/03/22 05:08:29;;;;;;;;;;;-0.30;99.90;;;;;;5083980;28;19923;-69
2022/03/22 05:10:57;;;;;;;;;;;-0.40;99.90;;;;;;5083800;28;19921;-69
2022/03/22 05:13:23;;;;;;;;;;;-0.30;99.90;;;;;;5083989;28;20266;-69
2022/03/22 05:15:50;;;;;;;;;;;-0.40;99.90;;;;;;5082876;28;20223;-70
2022/03/22 05:18:16;;;;;;;;;;;-0.40;99.90;;;;;;5084142;28;19927;-69
2022/03/22 05:20:43;;;;;;;;;;;-0.40;99.90;;;;;;5083867;28;19927;-69
2022/03/22 05:23:10;;;;;;;;;;;-0.40;99.90;;;;;;5083708;28;20203;-69
2022/03/22 05:25:36;;;;;;;;;;;-0.30;99.90;;;;;;5083108;28;19921;-69
2022/03/22 05:28:04;;;;;;;;;;;-0.30;99.90;;;;;;5083375;28;19920;-69
2022/03/22 05:30:31;;;;;;;;;;;-0.30;99.90;;;;;;5083373;28;20208;-69
2022/03/22 05:32:58;;;;;;;;;;;-0.30;99.90;;;;;;5083926;28;19962;-69
2022/03/22 05:35:24;;;;;;;;;;;-0.30;99.90;;;;;;5083025;28;19921;-69
2022/03/22 05:37:51;;;;;;;;;;;-0.40;99.90;;;;;;5084114;28;19920;-69
2022/03/22 05:40:18;;;;;;;;;;;-0.40;99.90;;;;;;5083385;28;19920;-70
2022/03/22 05:42:44;;;;;;;;;;;-0.40;99.90;;;;;;5083228;28;19924;-69
2022/03/22 05:45:12;;;;;;;;;;;-0.40;99.90;;;;;;5082891;28;19926;-68
2022/03/22 05:47:39;;;;;;;;;;;-0.40;99.90;;;;;;5083408;28;19920;-69
2022/03/22 05:50:06;;;;;;;;;;;-0.40;99.90;;;;;;5083524;28;19920;-68
2022/03/22 05:52:33;;;;;;;;;;;-0.40;99.90;;;;;;5083531;28;19989;-69
2022/03/22 05:55:00;;;;;;;;;;;-0.50;99.90;;;;;;5082705;28;20200;-69
2022/03/22 05:57:26;;;;;;;;;;;-0.50;99.90;;;;;;5082335;28;19920;-69
2022/03/22 05:59:53;;;;;;;;;;;-0.50;99.90;;;;;;5083099;28;19920;-69
2022/03/22 06:02:21;;;;;;;;;;;-0.50;99.90;;;;;;5083339;28;19936;-69
2022/03/22 06:04:48;;;;;;;;;;;-0.50;99.90;;;;;;5083153;28;19986;-69
2022/03/22 06:07:14;;;;;;;;;;;-0.50;99.90;;;;;;5082784;28;19996;-69
2022/03/22 06:09:42;;;;;;;;;;;-0.40;99.90;;;;;;5082681;28;20208;-69
2022/03/22 06:12:08;;;;;;;;;;;-0.40;99.90;;;;;;5080165;28;19966;-69
2022/03/22 06:14:35;;;;;;;;;;;-0.40;99.90;;;;;;5083070;28;19927;-69
2022/03/22 06:17:02;;;;;;;;;;;-0.40;99.90;;;;;;5082232;28;20066;-70
2022/03/22 06:19:29;;;;;;;;;;;-0.40;99.90;;;;;;5082822;28;20119;-69
2022/03/22 06:21:56;;;;;;;;;;;-0.40;99.90;;;;;;5071671;28;19927;-68
2022/03/22 06:24:23;;;;;;;;;;;-0.40;99.90;;;;;;5081720;28;19921;-69
2022/03/22 06:26:49;;;;;;;;;;;-0.40;99.90;;;;;;5082381;28;19920;-69
2022/03/22 06:29:16;;;;;;;;;;;-0.30;99.90;;;;;;5082932;28;19920;-70
2022/03/22 06:31:44;;;;;;;;;;;-0.30;99.90;;;;;;5082991;28;19920;-68
2022/03/22 06:34:10;;;;;;;;;;;-0.20;99.90;;;;;;5082659;28;19920;-69
2022/03/22 06:36:38;;;;;;;;;;;-0.20;99.90;;;;;;5082292;28;19920;-69
2022/03/22 06:39:05;;;;;;;;;;;-0.10;99.90;;;;;;5082584;28;19928;-69
2022/03/22 06:41:31;;;;;;;;;;;-0.10;99.90;;;;;;5083368;28;19935;-69
2022/03/22 06:43:58;;;;;;;;;;;0.00;99.90;;;;;;5083191;28;19927;-69
2022/03/22 06:46:26;;;;;;;;;;;0.00;99.90;;;;;;5082363;28;19921;-69
2022/03/22 06:48:53;;;;;;;;;;;0.10;99.90;;;;;;5082829;28;19924;-69
2022/03/22 06:51:20;;;;;;;;;;;0.10;99.90;;;;;;5082861;28;20226;-70
2022/03/22 06:53:48;;;;;;;;;;;0.20;99.90;;;;;;5082666;28;19962;-69
2022/03/22 06:56:15;;;;;;;;;;;0.20;99.90;;;;;;5081385;28;19920;-69
2022/03/22 06:58:41;;;;;;;;;;;0.30;99.90;;;;;;5082542;28;20259;-69
2022/03/22 07:01:08;;;;;;;;;;;0.40;99.90;;;;;;5082549;28;20122;-70
2022/03/22 07:03:36;;;;;;;;;;;0.50;99.90;;;;;;5082846;28;19920;-69
2022/03/22 07:06:04;;;;;;;;;;;0.60;99.90;;;;;;5081795;28;19975;-69
2022/03/22 07:08:30;;;;;;;;;;;0.70;99.90;;;;;;5085122;28;19999;-69
2022/03/22 07:13:44;;;;;;;;;;;1.10;99.90;;;;;;5086635;28;20222;-69
2022/03/22 07:16:10;;;;;;;;;;;1.30;99.90;;;;;;5085652;28;19920;-69
2022/03/22 07:18:37;;;;;;;;;;;1.50;99.90;;;;;;5086755;28;19934;-69
2022/03/22 07:21:04;;;;;;;;;;;1.80;99.90;;;;;;5083794;28;19920;-69
2022/03/22 07:23:31;;;;;;;;;;;2.00;99.90;;;;;;5086896;28;19966;-69
2022/03/22 07:25:57;;;;;;;;;;;2.20;99.90;;;;;;5086058;28;19927;-69
2022/03/22 07:28:27;;;;;;;;;;;2.40;99.90;;;;;;5085783;28;20837;-68
2022/03/22 07:30:54;;;;;;;;;;;2.60;99.90;;;;;;5086750;28;19926;-72
2022/03/22 07:33:20;;;;;;;;;;;2.70;99.90;;;;;;5086480;28;19920;-68
2022/03/22 07:35:47;;;;;;;;;;;2.90;99.90;;;;;;5085483;28;19920;-68
2022/03/22 07:38:14;;;;;;;;;;;3.00;99.90;;;;;;5085750;28;19920;-67
2022/03/22 07:40:41;;;;;;;;;;;3.20;99.90;;;;;;5085527;28;19921;-68
2022/03/22 07:43:07;;;;;;;;;;;3.30;99.90;;;;;;5085467;28;20090;-68
2022/03/22 07:45:36;;;;;;;;;;;3.40;99.90;;;;;;5084857;28;19979;-68
2022/03/22 07:48:03;;;;;;;;;;;3.50;99.90;;;;;;5085527;28;19920;-68
2022/03/22 07:53:13;;;;;;;;;;;3.80;99.90;;;;;;5086132;28;20226;-68
2022/03/22 07:55:41;;;;;;;;;;;4.00;99.90;;;;;;5084851;28;20109;-69
2022/03/22 07:58:08;;;;;;;;;;;4.10;99.90;;;;;;5085463;28;19947;-68
2022/03/22 08:00:37;;;;;;;;;;;4.20;99.90;;;;;;5085206;28;19927;-68
2022/03/22 08:03:05;;;;;;;;;;;4.30;99.90;;;;;;5085599;28;19920;-67
2022/03/22 08:05:34;;;;;;;;;;;4.40;99.90;;;;;;5084514;28;19920;-68
2022/03/22 08:08:01;;;;;;;;;;;4.60;99.90;;;;;;5085778;28;19935;-67
2022/03/22 08:10:28;;;;;;;;;;;4.70;99.90;;;;;;5085821;28;19963;-67
2022/03/22 08:12:55;;;;;;;;;;;4.80;99.90;;;;;;5085243;28;19966;-68
2022/03/22 08:15:22;;;;;;;;;;;5.00;99.90;;;;;;5081910;28;19925;-67
2022/03/22 08:17:49;;;;;;;;;;;5.10;99.90;;;;;;5085399;28;20123;-68
2022/03/22 08:20:16;;;;;;;;;;;5.20;99.90;;;;;;5084986;28;19927;-68
2022/03/22 08:22:50;;;;;;;;;;;5.30;99.90;;;;;;5085331;28;20232;-68
2022/03/22 08:25:17;;;;;;;;;;;5.40;99.90;;;;;;5084494;28;19920;-68
2022/03/22 08:27:44;;;;;;;;;;;5.60;99.90;;;;;;5085370;28;19927;-67
2022/03/22 08:30:12;;;;;;;;;;;5.70;99.90;;;;;;5085544;28;19921;-69
2022/03/22 08:32:39;;;;;;;;;;;5.80;99.90;;;;;;5085657;28;19921;-69
2022/03/22 08:35:08;;;;;;;;;;;5.90;99.90;;;;;;5085055;28;19920;-68
2022/03/22 08:37:35;;;;;;;;;;;6.00;99.90;;;;;;5085166;28;20015;-67
2022/03/22 08:40:02;;;;;;;;;;;6.10;99.90;;;;;;5081710;28;19928;-68
2022/03/22 08:42:28;;;;;;;;;;;6.20;99.90;;;;;;5085167;28;20037;-68
2022/03/22 08:44:55;;;;;;;;;;;6.20;99.90;;;;;;5085063;28;19928;-68
2022/03/22 08:47:22;;;;;;;;;;;6.30;99.80;;;;;;5084528;28;19920;-68
2022/03/22 08:49:50;;;;;;;;;;;6.40;99.70;;;;;;5084711;28;19920;-68
2022/03/22 08:52:18;;;;;;;;;;;6.50;99.10;;;;;;5084822;28;19920;-68
2022/03/22 08:54:45;;;;;;;;;;;6.70;99.10;;;;;;5084791;28;19927;-67
2022/03/22 08:57:40;;;;;;;;;;;6.70;98.70;;;;;;5066443;22;19928;-70
2022/03/22 09:00:09;;;;;;;;;;;6.90;99.20;;;;;;5045118;28;19955;-70
2022/03/22 09:02:35;;;;;;;;;;;7.00;98.00;;;;;;5044979;28;19925;-69
2022/03/22 09:07:48;;;;;;;;;;;7.20;97.50;;;;;;5023904;28;19924;-70
2022/03/22 09:10:19;;;;;;;;;;;7.30;97.70;;;;;;5023452;28;19921;-69
2022/03/22 09:12:45;;;;;;;;;;;7.40;96.80;;;;;;5023314;28;19921;-69
2022/03/22 09:15:13;;;;;;;;;;;7.60;96.50;;;;;;5023730;28;19922;-70
2022/03/22 09:17:39;;;;;;;;;;;7.60;96.40;;;;;;5023624;28;19928;-70
2022/03/22 09:20:07;;;;;;;;;;;7.70;96.20;;;;;;5024645;28;19925;-70
2022/03/22 09:22:33;;;;;;;;;;;7.70;96.50;;;;;;5024539;28;19921;-69
2022/03/22 09:25:01;;;;;;;;;;;7.90;95.30;;;;;;5024304;28;20263;-70
2022/03/22 09:27:34;;;;;;;;;;;8.00;96.40;;;;;;5016610;28;19921;-69
2022/03/22 09:30:00;;;;;;;;;;;8.10;95.10;;;;;;5023585;28;19921;-70
2022/03/22 09:32:27;;;;;;;;;;;8.20;95.60;;;;;;5023933;28;19922;-69
2022/03/22 09:34:53;;;;;;;;;;;8.30;96.10;;;;;;5022301;28;20221;-69
2022/03/22 09:37:20;;;;;;;;;;;8.40;94.90;;;;;;5023439;28;19925;-69
2022/03/22 09:39:47;;;;;;;;;;;8.50;94.70;;;;;;5024083;28;20232;-70
2022/03/22 09:42:16;;;;;;;;;;;8.60;94.10;;;;;;5024141;28;19928;-70
2022/03/22 09:44:43;;;;;;;;;;;8.70;93.80;;;;;;5023895;28;20212;-69
2022/03/22 09:47:11;;;;;;;;;;;8.80;93.90;;;;;;5023524;28;19929;-69
2022/03/22 09:49:38;;;;;;;;;;;8.90;94.40;;;;;;5024395;28;20153;-69
2022/03/22 09:52:05;;;;;;;;;;;9.00;93.50;;;;;;5024336;28;19922;-69
2022/03/22 09:54:32;;;;;;;;;;;9.10;92.90;;;;;;5023315;28;19928;-70
2022/03/22 09:56:59;;;;;;;;;;;9.20;92.80;;;;;;5050419;28;19928;-69
2022/03/22 09:59:26;;;;;;;;;;;9.30;92.60;;;;;;5063882;28;19920;-69
2022/03/22 10:01:54;;;;;;;;;;;9.40;92.70;;;;;;5063856;28;19920;-69
2022/03/22 10:04:21;;;;;;;;;;;9.50;92.10;;;;;;5063690;28;19921;-69
2022/03/22 10:06:51;;;;;;;;;;;9.60;92.60;;;;;;5062809;28;19992;-69
2022/03/22 10:09:27;;;;;;;;;;;9.70;90.90;;;;;;5063774;28;19920;-70
2022/03/22 10:11:53;;;;;;;;;;;9.80;91.10;;;;;;5063529;28;19921;-69
2022/03/22 10:14:20;;;;;;;;;;;9.90;91.20;;;;;;5063699;28;19927;-70
2022/03/22 10:16:50;;;;;;;;;;;10.00;91.00;;;;;;5062669;28;19959;-70
2022/03/22 10:19:21;;;;;;;;;;;10.20;90.90;;;;;;5063124;28;20212;-69
2022/03/22 10:21:48;;;;;;;;;;;10.30;90.20;;;;;;5058426;28;19921;-70
2022/03/22 10:24:15;;;;;;;;;;;10.50;89.30;;;;;;5063162;28;19933;-70
2022/03/22 10:26:44;;;;;;;;;;;10.60;88.60;;;;;;5060989;28;19921;-70
2022/03/22 10:29:11;;;;;;;;;;;10.70;86.60;;;;;;5059635;28;19921;-69
2022/03/22 10:31:40;;;;;;;;;;;10.80;86.10;;;;;;5055916;28;19925;-70
2022/03/22 10:34:09;;;;;;;;;;;10.90;87.00;;;;;;5043402;28;19967;-69
2022/03/22 10:36:36;;;;;;;;;;;11.10;86.40;;;;;;5043607;28;20173;-69
2022/03/22 10:39:04;;;;;;;;;;;11.20;84.40;;;;;;5043312;28;19944;-70
2022/03/22 10:41:32;;;;;;;;;;;11.40;83.70;;;;;;5061610;28;19920;-69
2022/03/22 10:44:03;;;;;;;;;;;11.50;84.60;;;;;;5066902;28;19967;-70
2022/03/22 10:46:30;;;;;;;;;;;11.70;84.00;;;;;;5054256;28;19921;-70
2022/03/22 10:49:01;;;;;;;;;;;11.90;82.50;;;;;;5057362;28;20211;-70
2022/03/22 10:51:33;;;;;;;;;;;12.00;81.50;;;;;;5058364;28;19936;-69
2022/03/22 10:54:00;;;;;;;;;;;12.10;81.40;;;;;;5057463;28;20234;-69
2022/03/22 10:56:27;;;;;;;;;;;12.20;81.20;;;;;;5061543;28;19944;-71
2022/03/22 10:58:54;;;;;;;;;;;12.40;81.30;;;;;;5055692;28;19983;-71
2022/03/22 11:01:22;;;;;;;;;;;12.60;80.70;;;;;;5043843;28;19921;-72
2022/03/22 11:03:49;;;;;;;;;;;12.80;82.80;;;;;;5045419;28;19921;-73
2022/03/22 11:06:18;;;;;;;;;;;13.00;80.80;;;;;;5044530;28;20233;-71
2022/03/22 11:08:47;;;;;;;;;;;13.30;79.40;;;;;;5045571;28;19928;-71
2022/03/22 11:11:14;;;;;;;;;;;13.50;78.40;;;;;;5061817;28;19924;-71
2022/03/22 11:13:41;;;;;;;;;;;13.70;78.50;;;;;;5066224;28;19921;-71
2022/03/22 11:16:08;;;;;;;;;;;13.70;78.10;;;;;;5065544;28;19921;-71
2022/03/22 11:18:35;;;;;;;;;;;13.80;76.90;;;;;;5066585;28;19935;-71
2022/03/22 11:21:02;;;;;;;;;;;13.90;77.30;;;;;;5066682;28;20123;-71
2022/03/22 11:23:30;;;;;;;;;;;13.90;76.90;;;;;;5065366;28;20234;-71
2022/03/22 11:26:08;;;;;;;;;;;14.00;79.00;;;;;;5065353;28;20223;-71
2022/03/22 11:28:35;;;;;;;;;;;14.20;74.80;;;;;;5065749;28;19970;-71
2022/03/22 11:31:02;;;;;;;;;;;14.30;75.90;;;;;;5058398;28;19920;-71
2022/03/22 11:36:15;;;;;;;;;;;14.50;73.10;;;;;;5064502;28;20071;-70
2022/03/22 11:38:43;;;;;;;;;;;14.40;73.60;;;;;;5054430;28;19927;-71
2022/03/22 11:44:16;;;;;;;;;;;14.70;73.40;;;;;;5059855;28;20598;-71
2022/03/22 11:46:42;;;;;;;;;;;14.80;71.20;;;;;;5056227;28;19920;-71
2022/03/22 11:49:13;;;;;;;;;;;14.90;68.50;;;;;;5057135;28;19927;-71
2022/03/22 11:51:47;;;;;;;;;;;14.90;69.50;;;;;;5049194;28;19959;-70
2022/03/22 11:54:13;;;;;;;;;;;15.10;69.80;;;;;;5058232;28;19936;-71
2022/03/22 11:56:47;;;;;;;;;;;15.30;67.70;;;;;;5051299;28;19928;-71
2022/03/22 11:59:15;;;;;;;;;;;15.60;66.00;;;;;;5062465;28;19936;-70
2022/03/22 12:01:54;;;;;;;;;;;15.60;67.50;;;;;;5064221;28;19928;-71
2022/03/22 12:04:21;;;;;;;;;;;15.80;63.30;;;;;;5052180;28;19921;-70
2022/03/22 12:06:48;;;;;;;;;;;16.00;65.10;;;;;;5056580;28;20329;-71
2022/03/22 12:09:15;;;;;;;;;;;16.20;65.20;;;;;;5057380;28;19928;-70
2022/03/22 12:11:50;;;;;;;;;;;16.40;63.50;;;;;;5059609;28;19920;-70
2022/03/22 12:14:26;;;;;;;;;;;16.50;63.80;;;;;;5065598;28;20234;-71
2022/03/22 12:16:53;;;;;;;;;;;16.60;66.80;;;;;;5064769;28;19928;-70
2022/03/22 12:19:25;;;;;;;;;;;16.90;67.70;;;;;;5065483;28;19928;-71
2022/03/22 12:21:53;;;;;;;;;;;17.20;66.40;;;;;;5064068;28;19943;-71
2022/03/22 12:24:19;;;;;;;;;;;17.40;61.70;;;;;;5065469;28;20204;-71
2022/03/22 12:26:46;;;;;;;;;;;17.60;65.60;;;;;;5056128;28;20200;-71
2022/03/22 12:29:16;;;;;;;;;;;17.70;63.40;;;;;;5057985;28;19921;-71
2022/03/22 12:31:49;;;;;;;;;;;17.50;62.40;;;;;;5054002;28;19921;-71
2022/03/22 12:34:16;;;;;;;;;;;17.50;64.80;;;;;;5059243;28;19921;-71
2022/03/22 12:36:43;;;;;;;;;;;17.70;60.90;;;;;;5061045;28;19959;-71
2022/03/22 12:39:09;;;;;;;;;;;17.70;64.40;;;;;;5053958;28;19924;-70
2022/03/22 12:41:36;;;;;;;;;;;17.80;63.60;;;;;;5052434;28;19921;-71
2022/03/22 12:44:03;;;;;;;;;;;18.10;61.70;;;;;;5055511;28;19921;-71
2022/03/22 12:46:31;;;;;;;;;;;18.10;61.50;;;;;;5052051;28;19927;-71
2022/03/22 12:48:58;;;;;;;;;;;18.10;59.10;;;;;;5051036;28;19928;-71
2022/03/22 12:51:25;;;;;;;;;;;18.10;62.40;;;;;;5053017;28;19928;-71
2022/03/22 12:53:52;;;;;;;;;;;18.20;59.30;;;;;;5052855;28;19948;-71
2022/03/22 12:56:20;;;;;;;;;;;18.20;56.50;;;;;;5053804;28;20242;-71
2022/03/22 12:58:47;;;;;;;;;;;18.30;56.80;;;;;;5054894;28;19983;-71
2022/03/22 13:01:14;;;;;;;;;;;18.30;53.70;;;;;;5055334;28;20148;-71
2022/03/22 13:03:42;;;;;;;;;;;18.10;55.30;;;;;;5053777;28;19948;-71
2022/03/22 13:06:09;;;;;;;;;;;18.20;54.80;;;;;;5057135;28;19921;-71
2022/03/22 13:11:29;;;;;;;;;;;18.40;57.10;;;;;;5055988;28;19977;-71
2022/03/22 13:16:41;;;;;;;;;;;18.70;54.20;;;;;;5054124;28;19931;-71
2022/03/22 13:19:09;;;;;;;;;;;18.70;53.20;;;;;;5052940;28;19921;-71
2022/03/22 13:21:37;;;;;;;;;;;18.80;52.30;;;;;;5052032;28;19921;-71
2022/03/22 13:24:04;;;;;;;;;;;19.00;52.70;;;;;;5056998;28;19927;-71
2022/03/22 13:26:32;;;;;;;;;;;19.30;53.00;;;;;;5054487;28;19921;-71
2022/03/22 13:28:58;;;;;;;;;;;19.60;52.00;;;;;;5058705;28;19980;-71
2022/03/22 13:31:25;;;;;;;;;;;19.80;51.00;;;;;;5057432;28;19928;-71
2022/03/22 13:33:55;;;;;;;;;;;20.00;51.30;;;;;;5056182;28;19959;-71
2022/03/22 13:36:23;;;;;;;;;;;20.20;51.30;;;;;;5056544;28;20216;-71
2022/03/22 13:38:50;;;;;;;;;;;20.10;50.80;;;;;;5055968;28;19925;-71
2022/03/22 13:41:23;;;;;;;;;;;20.10;50.60;;;;;;5054619;28;20118;-71
2022/03/22 13:43:50;;;;;;;;;;;20.20;49.80;;;;;;5054476;28;19929;-71
2022/03/22 13:46:16;;;;;;;;;;;20.30;51.10;;;;;;5053407;28;19921;-71
2022/03/22 13:48:44;;;;;;;;;;;20.50;50.30;;;;;;5055031;28;19928;-71
2022/03/22 13:51:17;;;;;;;;;;;20.60;49.20;;;;;;5051146;28;19947;-71
2022/03/22 13:53:45;;;;;;;;;;;20.60;48.70;;;;;;5061196;28;19927;-71
2022/03/22 13:56:11;;;;;;;;;;;20.70;49.70;;;;;;5065220;28;20122;-72
2022/03/22 13:58:40;;;;;;;;;;;20.80;48.70;;;;;;5051606;28;19921;-71
2022/03/22 14:01:10;;;;;;;;;;;21.10;50.00;;;;;;5043455;28;20377;-71
2022/03/22 14:03:36;;;;;;;;;;;21.30;49.50;;;;;;5076126;28;19977;-71
2022/03/22 14:06:03;;;;;;;;;;;21.50;49.00;;;;;;5061766;28;19921;-71
2022/03/22 14:08:30;;;;;;;;;;;21.50;47.80;;;;;;5054501;28;19921;-72
2022/03/22 14:10:59;;;;;;;;;;;21.10;46.70;;;;;;5054713;28;19921;-71
2022/03/22 14:13:28;;;;;;;;;;;21.00;45.50;;;;;;5057457;28;20235;-71
2022/03/22 14:15:55;;;;;;;;;;;20.80;46.20;;;;;;5060567;28;19921;-72
2022/03/22 14:18:22;;;;;;;;;;;20.80;47.20;;;;;;5055150;28;19921;-71
2022/03/22 14:20:50;;;;;;;;;;;21.00;47.50;;;;;;5055537;28;19921;-71
2022/03/22 14:23:17;;;;;;;;;;;21.20;46.90;;;;;;5054219;28;19967;-71
2022/03/22 14:25:43;;;;;;;;;;;21.50;47.30;;;;;;5050799;28;20209;-72
2022/03/22 14:28:12;;;;;;;;;;;21.70;46.90;;;;;;5050751;28;19925;-71
2022/03/22 14:30:40;;;;;;;;;;;22.00;48.30;;;;;;5055529;28;19921;-71
2022/03/22 14:33:07;;;;;;;;;;;21.90;46.10;;;;;;5059103;28;19921;-70
2022/03/22 14:38:22;;;;;;;;;;;21.70;48.30;;;;;;5037650;28;19975;-72
2022/03/22 14:40:50;;;;;;;;;;;21.80;45.50;;;;;;5056857;28;19927;-72
2022/03/22 14:43:18;;;;;;;;;;;22.00;45.60;;;;;;5044620;28;20129;-71
2022/03/22 14:45:47;;;;;;;;;;;22.00;45.70;;;;;;5049095;28;19925;-72
2022/03/22 14:48:15;;;;;;;;;;;21.80;44.10;;;;;;5049448;28;19967;-72
2022/03/22 14:50:42;;;;;;;;;;;21.50;44.30;;;;;;5044404;28;19983;-72
2022/03/22 14:58:46;;;;;;;;;;;20.90;45.90;;;;;;5071796;22;19967;-88
2022/03/22 14:58:52;;;;;;;;;;;20.90;44.80;;;;;;5081533;28;19944;-89
2022/03/22 15:01:19;;;;;;;;;;;21.00;44.00;;;;;;5083030;28;19932;-91
2022/03/22 15:03:47;;;;;;;;;;;21.00;44.30;;;;;;5085632;28;19942;-90
2022/03/22 15:06:14;;;;;;;;;;;20.90;46.10;;;;;;5088185;28;19908;-89
2022/03/22 15:11:18;;;;;;;;;;;20.90;43.40;;;;;;5068156;28;19921;-69
2022/03/22 15:13:46;;;;;;;;;;;20.80;44.40;;;;;;5071534;28;19925;-68
2022/03/22 15:16:13;;;;;;;;;;;20.80;45.30;;;;;;5074299;28;19966;-68
2022/03/22 15:18:40;;;;;;;;;;;20.50;44.40;;;;;;5073516;28;19921;-69
2022/03/22 15:21:08;;;;;;;;;;;20.30;43.60;;;;;;5074415;28;19966;-69